Pacific Titan — WCZ6844 — position and weather

sailwx.info

Track history (hours):
 
Tides and Currents Weather Stations Pressure Air Temp Water Temp Dewpoint Dewpoint Depression Visibility Wind Speed Wind Dir Waves Ship Positions

Pacific Titan

Owner: WESTERN TOWBOAT CO, SEATTLE, WA. More information available from US FCC via Universal Licensing System and Coast Guard Vessel Documentation Center.

Last reported at 2015-Apr-20 03:16 UTC. Time now 2015-Apr-21 17:53 UTC.
Position N 52°02' W 127°55'.

Type: Tow > 200 m length. MMSI: 338855000.

Date/timePositionNaut miles runAvg speedWind from/ knotsBaromVisibWave heightAir tempDewpointWater temp
2015-Apr-20 03:16N 52°02' W 127°55'9 8.7
2015-Apr-20 02:10N 51°53' W 127°56'6 9.0
2015-Apr-20 01:33N 51°47' W 127°56'16 7.9
2015-Apr-19 23:32N 51°32' W 127°52'8 8.3
2015-Apr-19 22:33N 51°23' W 127°52'8 7.9
2015-Apr-19 21:32N 51°15' W 127°53'7 6.9
2015-Apr-19 20:33N 51°09' W 127°50'7 6.5
2015-Apr-19 19:33N 51°05' W 127°42'7 7.4
2015-Apr-19 18:33N 50°59' W 127°34'9 8.7
2015-Apr-19 17:33N 50°54' W 127°23'10 9.4
2015-Apr-19 16:32N 50°49' W 127°10'10 9.5
2015-Apr-19 15:28N 50°43' W 126°57'9 9.7
2015-Apr-19 14:33N 50°37' W 126°46'1210.4
2015-Apr-19 13:23N 50°30' W 126°31'102 6.3
2015-Apr-18 21:19N 49°33' W 124°19'8 9.3
2015-Apr-18 20:27N 49°29' W 124°09'8 8.3
2015-Apr-18 19:31N 49°25' W 123°58'8 8.4
2015-Apr-18 18:33N 49°20' W 123°48'8 8.4
2015-Apr-18 17:33N 49°15' W 123°38'6 6.3
2015-Apr-18 16:33N 49°10' W 123°32'8 8.2
2015-Apr-18 15:33N 49°05' W 123°23'8 7.9
2015-Apr-18 14:33N 48°60' W 123°14'7 7.4
2015-Apr-18 13:33N 48°55' W 123°05'9 8.6
2015-Apr-18 12:33N 48°49' W 122°55'9 9.1
2015-Apr-18 11:33N 48°44' W 122°45'1010.0
2015-Apr-18 10:33N 48°34' W 122°45'1110.8
2015-Apr-18 09:33N 48°23' W 122°45'9 9.2
2015-Apr-18 08:33N 48°14' W 122°48'9 6.9
2015-Apr-18 07:19N 48°07' W 122°40'7 9.0
2015-Apr-18 06:33N 48°01' W 122°36'9 9.1
2015-Apr-18 05:33N 47°54' W 122°28'9 9.2
2015-Apr-18 04:33N 47°45' W 122°26'8 8.4
2015-Apr-18 03:33N 47°36' W 122°23'4 3.5
2015-Apr-18 02:33N 47°33' W 122°21'0 0.0
2015-Apr-18 01:33N 47°33' W 122°21'0 0.0
2015-Apr-18 00:33N 47°33' W 122°21'0 0.0
2015-Apr-17 23:32N 47°33' W 122°21'5 4.8
2015-Apr-17 22:31N 47°37' W 122°25'3 3.0
2015-Apr-17 21:33N 47°40' W 122°22'0 0.4
2015-Apr-17 20:32N 47°39' W 122°22'0 0.0
2015-Apr-17 19:33N 47°39' W 122°22'  
2015-Apr-14 20:33N 47°40' W 122°24'3 3.3
2015-Apr-14 19:33N 47°37' W 122°23'1 0.5
2015-Apr-14 18:33N 47°36' W 122°23'9 8.6
2015-Apr-14 17:33N 47°44' W 122°27'10 9.6
2015-Apr-14 16:33N 47°54' W 122°30'9 9.2
2015-Apr-14 15:33N 48°01' W 122°38'9 8.6
2015-Apr-14 14:33N 48°09' W 122°44'7 7.0
2015-Apr-14 13:33N 48°15' W 122°48'9 9.5
2015-Apr-14 12:33N 48°24' W 122°45'1110.7
2015-Apr-14 11:33N 48°35' W 122°46'9 9.4
2015-Apr-14 10:33N 48°44' W 122°47'10 9.8
2015-Apr-14 09:33N 48°50' W 122°59'1010.0
2015-Apr-14 08:33N 48°56' W 123°12'1010.0
2015-Apr-14 07:33N 49°02' W 123°23'9 9.4
2015-Apr-14 06:33N 49°09' W 123°33'9 9.4
2015-Apr-14 05:33N 49°15' W 123°44'9 9.2
2015-Apr-14 04:33N 49°21' W 123°55'9 9.3
2015-Apr-14 03:33N 49°27' W 124°06'10 9.9
2015-Apr-14 02:32N 49°33' W 124°18'12 8.2
2015-Apr-14 01:06N 49°39' W 124°34'2 4.4
2015-Apr-14 00:33N 49°41' W 124°36'9 9.2
2015-Apr-13 23:33N 49°46' W 124°48'77 8.5
2015-Apr-13 14:31N 50°30' W 126°27'13 6.1
2015-Apr-13 12:23N 50°36' W 126°45'4 5.0
2015-Apr-13 11:32N 50°39' W 126°50'7 6.2
2015-Apr-13 10:23N 50°43' W 126°59'5 5.9
2015-Apr-13 09:33N 50°45' W 127°06'6 5.8
2015-Apr-13 08:33N 50°48' W 127°14'6 5.6
2015-Apr-13 07:33N 50°52' W 127°20'6 6.1
2015-Apr-13 06:33N 50°56' W 127°27'7 7.3
2015-Apr-13 05:33N 51°01' W 127°36'6 6.3
2015-Apr-13 04:33N 51°05' W 127°43'5 5.4
2015-Apr-13 03:33N 51°09' W 127°50'12 8.2
2015-Apr-13 02:05N 51°21' W 127°53'7 8.5
2015-Apr-13 01:14N 51°28' W 127°52'  
Track history (hours):
 
Tides and Currents Weather Stations Pressure Air Temp Water Temp Dewpoint Dewpoint Depression Visibility Wind Speed Wind Dir Waves Ship Positions

Pacific Titan

Owner: WESTERN TOWBOAT CO, SEATTLE, WA. More information available from US FCC via Universal Licensing System and Coast Guard Vessel Documentation Center.

Last reported at 2015-Apr-20 03:16 UTC. Time now 2015-Apr-21 17:53 UTC.
Position N 52°02' W 127°55'.

Type: Tow > 200 m length. MMSI: 338855000.

Date/timePositionNaut miles runAvg speedWind from/ knotsBaromVisibWave heightAir tempDewpointWater temp
2015-Apr-20 03:16N 52°02' W 127°55'9 8.7
2015-Apr-20 02:10N 51°53' W 127°56'6 9.0
2015-Apr-20 01:33N 51°47' W 127°56'16 7.9
2015-Apr-19 23:32N 51°32' W 127°52'8 8.3
2015-Apr-19 22:33N 51°23' W 127°52'8 7.9
2015-Apr-19 21:32N 51°15' W 127°53'7 6.9
2015-Apr-19 20:33N 51°09' W 127°50'7 6.5
2015-Apr-19 19:33N 51°05' W 127°42'7 7.4
2015-Apr-19 18:33N 50°59' W 127°34'9 8.7
2015-Apr-19 17:33N 50°54' W 127°23'10 9.4
2015-Apr-19 16:32N 50°49' W 127°10'10 9.5
2015-Apr-19 15:28N 50°43' W 126°57'9 9.7
2015-Apr-19 14:33N 50°37' W 126°46'1210.4
2015-Apr-19 13:23N 50°30' W 126°31'102 6.3
2015-Apr-18 21:19N 49°33' W 124°19'8 9.3
2015-Apr-18 20:27N 49°29' W 124°09'8 8.3
2015-Apr-18 19:31N 49°25' W 123°58'8 8.4
2015-Apr-18 18:33N 49°20' W 123°48'8 8.4
2015-Apr-18 17:33N 49°15' W 123°38'6 6.3
2015-Apr-18 16:33N 49°10' W 123°32'8 8.2
2015-Apr-18 15:33N 49°05' W 123°23'8 7.9
2015-Apr-18 14:33N 48°60' W 123°14'7 7.4
2015-Apr-18 13:33N 48°55' W 123°05'9 8.6
2015-Apr-18 12:33N 48°49' W 122°55'9 9.1
2015-Apr-18 11:33N 48°44' W 122°45'1010.0
2015-Apr-18 10:33N 48°34' W 122°45'1110.8
2015-Apr-18 09:33N 48°23' W 122°45'9 9.2
2015-Apr-18 08:33N 48°14' W 122°48'9 6.9
2015-Apr-18 07:19N 48°07' W 122°40'7 9.0
2015-Apr-18 06:33N 48°01' W 122°36'9 9.1
2015-Apr-18 05:33N 47°54' W 122°28'9 9.2
2015-Apr-18 04:33N 47°45' W 122°26'8 8.4
2015-Apr-18 03:33N 47°36' W 122°23'4 3.5
2015-Apr-18 02:33N 47°33' W 122°21'0 0.0
2015-Apr-18 01:33N 47°33' W 122°21'0 0.0
2015-Apr-18 00:33N 47°33' W 122°21'0 0.0
2015-Apr-17 23:32N 47°33' W 122°21'5 4.8
2015-Apr-17 22:31N 47°37' W 122°25'3 3.0
2015-Apr-17 21:33N 47°40' W 122°22'0 0.4
2015-Apr-17 20:32N 47°39' W 122°22'0 0.0
2015-Apr-17 19:33N 47°39' W 122°22'  
2015-Apr-14 20:33N 47°40' W 122°24'3 3.3
2015-Apr-14 19:33N 47°37' W 122°23'1 0.5
2015-Apr-14 18:33N 47°36' W 122°23'9 8.6
2015-Apr-14 17:33N 47°44' W 122°27'10 9.6
2015-Apr-14 16:33N 47°54' W 122°30'9 9.2
2015-Apr-14 15:33N 48°01' W 122°38'9 8.6
2015-Apr-14 14:33N 48°09' W 122°44'7 7.0
2015-Apr-14 13:33N 48°15' W 122°48'9 9.5
2015-Apr-14 12:33N 48°24' W 122°45'1110.7
2015-Apr-14 11:33N 48°35' W 122°46'9 9.4
2015-Apr-14 10:33N 48°44' W 122°47'10 9.8
2015-Apr-14 09:33N 48°50' W 122°59'1010.0
2015-Apr-14 08:33N 48°56' W 123°12'1010.0
2015-Apr-14 07:33N 49°02' W 123°23'9 9.4
2015-Apr-14 06:33N 49°09' W 123°33'9 9.4
2015-Apr-14 05:33N 49°15' W 123°44'9 9.2
2015-Apr-14 04:33N 49°21' W 123°55'9 9.3
2015-Apr-14 03:33N 49°27' W 124°06'10 9.9
2015-Apr-14 02:32N 49°33' W 124°18'12 8.2
2015-Apr-14 01:06N 49°39' W 124°34'2 4.4
2015-Apr-14 00:33N 49°41' W 124°36'9 9.2
2015-Apr-13 23:33N 49°46' W 124°48'77 8.5
2015-Apr-13 14:31N 50°30' W 126°27'13 6.1
2015-Apr-13 12:23N 50°36' W 126°45'4 5.0
2015-Apr-13 11:32N 50°39' W 126°50'7 6.2
2015-Apr-13 10:23N 50°43' W 126°59'5 5.9
2015-Apr-13 09:33N 50°45' W 127°06'6 5.8
2015-Apr-13 08:33N 50°48' W 127°14'6 5.6
2015-Apr-13 07:33N 50°52' W 127°20'6 6.1
2015-Apr-13 06:33N 50°56' W 127°27'7 7.3
2015-Apr-13 05:33N 51°01' W 127°36'6 6.3
2015-Apr-13 04:33N 51°05' W 127°43'5 5.4
2015-Apr-13 03:33N 51°09' W 127°50'12 8.2
2015-Apr-13 02:05N 51°21' W 127°53'7 8.5
2015-Apr-13 01:14N 51°28' W 127°52'  

Dump ship's entire track history